Big Bear Station Historical Data
Daily Summary for May 17, 2019 Units:  English    Metric   Both
Next Day »
Daily Weekly Monthly Yearly Custom
  High: Low: Average:
Temperature: 55.9 °F 29.7 °F 41.1 °F
Dew Point: 43.9 °F 26.3 °F 33.9 °F
Humidity: 96% 47% 77%
Wind Speed: 6.8mph 0mph 2mph
Wind Gust: -999mph - -
Wind- - WNW
Pressure: 23.42 in 23.34 in -
Precipitation: 0 in    
Historical Graphs
 
 
Tabular Data for May 17, 2019
Time Temperature Dew Point Pressure Wind Wind Speed Wind Gust Humidity Rainfall Rate (Hourly)
00:08 33.8 °F 32.3 °F 23.36 in Calm   -999 mph 94% 0.00 in
00:23 33.8 °F 32.3 °F 23.36 in Calm   -999 mph 94% 0.00 in
00:38 33.8 °F 32 °F 23.36 in Calm   -999 mph 93% 0.00 in
00:54 33.8 °F 32 °F 23.35 in West 1.7 mph -999 mph 93% 0.00 in
01:09 33.8 °F 31.7 °F 23.35 in Calm   -999 mph 92% 0.00 in
01:24 33.6 °F 31.3 °F 23.35 in Calm   -999 mph 91% 0.00 in
01:39 33.1 °F 30.8 °F 23.35 in Calm   -999 mph 91% 0.00 in
01:54 32.7 °F 30.4 °F 23.35 in Calm   -999 mph 91% 0.00 in
02:10 32.9 °F 30.6 °F 23.35 in Calm   -999 mph 91% 0.00 in
02:25 33.1 °F 30.8 °F 23.35 in Calm   -999 mph 91% 0.00 in
02:40 33.4 °F 30.8 °F 23.35 in ESE 2.7 mph -999 mph 90% 0.00 in
02:55 33.6 °F 30.7 °F 23.35 in South 3.2 mph -999 mph 89% 0.00 in
03:10 33.8 °F 30.9 °F 23.35 in Calm   -999 mph 89% 0.00 in
03:26 33.8 °F 30.9 °F 23.36 in SSW 5.3 mph -999 mph 89% 0.00 in
03:41 33.4 °F 30.5 °F 23.35 in SSE 2.2 mph -999 mph 89% 0.00 in
03:56 33.1 °F 30.2 °F 23.35 in Calm   -999 mph 89% 0.00 in
04:11 32.4 °F 29.8 °F 23.35 in Calm   -999 mph 90% 0.00 in
04:27 31.8 °F 29.7 °F 23.35 in Calm   -999 mph 92% 0.00 in
04:42 31.6 °F 29.5 °F 23.35 in Calm   -999 mph 92% 0.00 in
04:57 31.3 °F 29.2 °F 23.35 in Calm   -999 mph 92% 0.00 in
05:12 31.1 °F 29.6 °F 23.35 in Calm   -999 mph 94% 0.00 in
05:27 30.6 °F 29.1 °F 23.35 in Calm   -999 mph 94% 0.00 in
05:43 30.2 °F 28.9 °F 23.34 in Calm   -999 mph 95% 0.00 in
05:58 29.8 °F 28.5 °F 23.35 in Calm   -999 mph 95% 0.00 in
06:14 29.7 °F 28.4 °F 23.35 in Calm   -999 mph 95% 0.00 in
06:29 30.2 °F 29.2 °F 23.35 in Calm   -999 mph 96% 0.00 in
06:44 30.7 °F 29.2 °F 23.35 in Calm   -999 mph 94% 0.00 in
06:59 30.4 °F 28.9 °F 23.36 in Calm   -999 mph 94% 0.00 in
07:14 31.1 °F 29.6 °F 23.36 in Calm   -999 mph 94% 0.00 in
07:30 32.9 °F 30 °F 23.37 in Calm   -999 mph 89% 0.00 in
07:45 34.7 °F 26.3 °F 23.37 in Calm   -999 mph 71% 0.00 in
08:00 35.4 °F 26.9 °F 23.37 in Calm   -999 mph 71% 0.00 in
08:15 36.7 °F 26.8 °F 23.37 in Calm   -999 mph 67% 0.00 in
08:30 37.6 °F 28.7 °F 23.38 in Calm   -999 mph 70% 0.00 in
08:46 39.6 °F 28.4 °F 23.38 in WNW 3.2 mph -999 mph 64% 0.00 in
09:01 41 °F 30.5 °F 23.38 in NW 1.1 mph -999 mph 66% 0.00 in
09:16 41.2 °F 30.7 °F 23.39 in NW 4.2 mph -999 mph 66% 0.00 in
09:32 42.8 °F 32.2 °F 23.39 in WNW 3.7 mph -999 mph 66% 0.00 in
09:47 44.4 °F 28.8 °F 23.39 in West 2.7 mph -999 mph 54% 0.00 in
10:02 45 °F 29.8 °F 23.39 in NNW 1.7 mph -999 mph 55% 0.00 in
10:17 45.9 °F 32.8 °F 23.39 in NW 5.8 mph -999 mph 60% 0.00 in
10:33 45.7 °F 36.5 °F 23.39 in NNW 5.3 mph -999 mph 70% 0.00 in
10:48 46.9 °F 28.2 °F 23.39 in WNW 5.8 mph -999 mph 48% 0.00 in
11:04 48.4 °F 29.1 °F 23.40 in NNE 3.7 mph -999 mph 47% 0.00 in
11:20 49.3 °F 31.4 °F 23.40 in WNW 4.7 mph -999 mph 50% 0.00 in
11:35 48.7 °F 31.9 °F 23.40 in NE 4.7 mph -999 mph 52% 0.00 in
11:50 48.4 °F 36.8 °F 23.41 in NNW 4.7 mph -999 mph 64% 0.00 in
12:05 50.5 °F 38.8 °F 23.41 in NW 4.7 mph -999 mph 64% 0.00 in
12:20 50 °F 38.7 °F 23.41 in West 4.7 mph -999 mph 65% 0.00 in
12:36 51.3 °F 39.1 °F 23.41 in NNW 3.7 mph -999 mph 63% 0.00 in
12:51 52.5 °F 41.1 °F 23.41 in West 3.2 mph -999 mph 65% 0.00 in
13:06 53.2 °F 40.5 °F 23.41 in NW 5.3 mph -999 mph 62% 0.00 in
13:21 53.4 °F 39.4 °F 23.41 in North 3.7 mph -999 mph 59% 0.00 in
13:36 55.6 °F 39.2 °F 23.41 in NNW 1.7 mph -999 mph 54% 0.00 in
13:52 54.5 °F 41.7 °F 23.41 in North 3.2 mph -999 mph 62% 0.00 in
14:07 54.9 °F 40.8 °F 23.41 in NNW 5.8 mph -999 mph 59% 0.00 in
14:22 54.7 °F 41.1 °F 23.41 in NNW 6.8 mph -999 mph 60% 0.00 in
14:38 52.7 °F 42.1 °F 23.41 in NNE 4.2 mph -999 mph 67% 0.00 in
14:53 53.8 °F 42.3 °F 23.42 in NW 6.8 mph -999 mph 65% 0.00 in
15:08 51.4 °F 41.6 °F 23.41 in NW 5.3 mph -999 mph 69% 0.00 in
15:24 52.2 °F 41.6 °F 23.41 in NNW 4.7 mph -999 mph 67% 0.00 in
15:39 52 °F 40.2 °F 23.41 in NW 3.7 mph -999 mph 64% 0.00 in
15:54 53.1 °F 42 °F 23.41 in NW 4.7 mph -999 mph 66% 0.00 in
16:09 53.1 °F 41.6 °F 23.40 in NW 6.3 mph -999 mph 65% 0.00 in
16:25 52.7 °F 41.3 °F 23.40 in NW 2.2 mph -999 mph 65% 0.00 in
16:40 54.7 °F 42.8 °F 23.40 in NNW 5.3 mph -999 mph 64% 0.00 in
16:55 55.9 °F 43.9 °F 23.40 in WNW 5.8 mph -999 mph 64% 0.00 in
17:10 53.8 °F 42.3 °F 23.41 in NW 5.8 mph -999 mph 65% 0.00 in
17:26 54.1 °F 42.2 °F 23.41 in NNW 1.1 mph -999 mph 64% 0.00 in
17:41 52.7 °F 40.9 °F 23.41 in Calm   -999 mph 64% 0.00 in
17:56 53.1 °F 41.2 °F 23.40 in NNW 4.2 mph -999 mph 64% 0.00 in
18:11 51.3 °F 40.7 °F 23.40 in NW 4.2 mph -999 mph 67% 0.00 in
18:27 49.3 °F 39.6 °F 23.40 in NNW 4.7 mph -999 mph 69% 0.00 in
18:42 50 °F 40.2 °F 23.41 in NNW 4.7 mph -999 mph 69% 0.00 in
18:57 46 °F 38.9 °F 23.41 in NW 6.3 mph -999 mph 76% 0.00 in
19:12 43.5 °F 38.4 °F 23.41 in Calm   -999 mph 82% 0.00 in
19:28 42.3 °F 37.5 °F 23.41 in Calm   -999 mph 83% 0.00 in
19:43 41.4 °F 36.9 °F 23.40 in Calm   -999 mph 84% 0.00 in
19:58 39.9 °F 36.1 °F 23.40 in Calm   -999 mph 86% 0.00 in
20:13 39 °F 35.7 °F 23.41 in Calm   -999 mph 88% 0.00 in
20:28 37.9 °F 34.9 °F 23.41 in Calm   -999 mph 89% 0.00 in
20:43 37 °F 34.3 °F 23.41 in Calm   -999 mph 90% 0.00 in
20:59 36.1 °F 33.5 °F 23.41 in Calm   -999 mph 90% 0.00 in
21:14 35.4 °F 32.2 °F 23.41 in Calm   -999 mph 88% 0.00 in
21:29 35.2 °F 32 °F 23.41 in Calm   -999 mph 88% 0.00 in
21:44 35.4 °F 31.6 °F 23.41 in Calm   -999 mph 86% 0.00 in
22:00 34.7 °F 29.8 °F 23.41 in Calm   -999 mph 82% 0.00 in
22:15 34.7 °F 28.5 °F 23.42 in Calm   -999 mph 78% 0.00 in
22:30 34.9 °F 29.4 °F 23.42 in Calm   -999 mph 80% 0.00 in
22:45 34.2 °F 29.3 °F 23.42 in Calm   -999 mph 82% 0.00 in
23:00 33.4 °F 29.1 °F 23.42 in Calm   -999 mph 84% 0.00 in
23:16 33.1 °F 28.2 °F 23.42 in Calm   -999 mph 82% 0.00 in
23:31 32.9 °F 28 °F 23.42 in Calm   -999 mph 82% 0.00 in
23:46 32.2 °F 27.3 °F 23.42 in Calm   -999 mph 82% 0.00 in
Big Bear CA Weather